This is the latest recevied weather packets stored in our database for station/object HB9CYX-13. If no packets are shown the sender has not sent any weather packets the latest 10 day(s).
| Time | Temp. | Humidity | Pressure | Rain* | Wind** | Luminosity | Snow |
|---|---|---|---|---|---|---|---|
| 1777319672 | 15.56° C | 46% | 1017.7 hPa | 0 mm | - | - | - |
| 1777318924 | 16.11° C | 45% | 1017.4 hPa | 0 mm | - | - | - |
| 1777318176 | 16.11° C | 45% | 1017.5 hPa | 0 mm | - | - | - |
| 1777317430 | 16.67° C | 44% | 1017.4 hPa | 0 mm | - | - | - |
| 1777316682 | 16.67° C | 44% | 1017.5 hPa | 0 mm | - | - | - |
| 1777315936 | 17.22° C | 43% | 1017.4 hPa | 0 mm | - | - | - |
| 1777315189 | 17.78° C | 41% | 1017.1 hPa | 0 mm | - | - | - |
| 1777314442 | 17.78° C | 41% | 1017.1 hPa | 0 mm | - | - | - |
| 1777313696 | 18.89° C | 39% | 1017 hPa | 0 mm | - | - | - |
| 1777312949 | 19.44° C | 37% | 1016.9 hPa | 0 mm | - | - | - |
| 1777312202 | 20° C | 36% | 1016.7 hPa | 0 mm | - | - | - |
| 1777311454 | 21.11° C | 34% | 1016.4 hPa | 0 mm | - | - | - |
| 1777310707 | 21.11° C | 33% | 1016.4 hPa | 0 mm | - | - | - |
| 1777309959 | 21.67° C | 33% | 1016.3 hPa | 0 mm | - | - | - |
| 1777309212 | 21.67° C | 32% | 1016.2 hPa | 0 mm | - | - | - |
| 1777308464 | 22.78° C | 30% | 1016.2 hPa | 0 mm | - | - | - |
| 1777307717 | 23.33° C | 23% | 1016.2 hPa | 0 mm | - | - | - |
| 1777306971 | 23.89° C | 22% | 1016.1 hPa | 0 mm | - | - | - |
| 1777306223 | 25.56° C | 20% | 1015.9 hPa | 0 mm | - | - | - |
| 1777305476 | 25.56° C | 21% | 1015.9 hPa | 0 mm | - | - | - |
| 1777304729 | 27.22° C | 22% | 1015.9 hPa | 0 mm | - | - | - |
| 1777303982 | 26.11° C | 20% | 1016.1 hPa | 0 mm | - | - | - |
| 1777303235 | 25.56° C | 19% | 1016.1 hPa | 0 mm | - | - | - |
| 1777302487 | 26.11° C | 20% | 1016.1 hPa | 0 mm | - | - | - |
| 1777301740 | 26.67° C | 20% | 1016.1 hPa | 0 mm | - | - | - |
* Rain latest hour (hover to see other rain measurements)
** Current wind speed in m/s (hover to see current wind gust speed)